Time;durP1;ratioP1;P1;durP2;ratioP2;P2;SDS_P1;SDS_P2;PMS_P1;PMS_P2;Temp;Humidity;BMP_temperature;BMP_pressure;BME280_temperature;BME280_humidity;BME280_pressure;Samples;Min_cycle;Max_cycle;Signal;HPM_P1;HPM_P2
2024/01/08 00:01:04;;;;;;;5.40;2.75;;;-2.70;99.90;;;;;;4909202;29;20044;-76
2024/01/08 00:03:30;;;;;;;7.43;3.90;;;-2.70;99.90;;;;;;4916832;29;20040;-76
2024/01/08 00:05:56;;;;;;;7.25;4.70;;;-2.70;99.90;;;;;;4917702;29;20076;-76
2024/01/08 00:08:21;;;;;;;7.15;4.28;;;-2.70;99.90;;;;;;4917376;29;20083;-76
2024/01/08 00:10:47;;;;;;;6.05;3.10;;;-2.80;99.90;;;;;;4902062;29;20136;-76
2024/01/08 00:13:12;;;;;;;2.55;1.60;;;-2.80;99.90;;;;;;4917337;29;20051;-76
2024/01/08 00:15:38;;;;;;;3.67;2.65;;;-2.80;99.90;;;;;;4901727;29;20550;-76
2024/01/08 00:18:04;;;;;;;5.03;3.33;;;-2.80;99.90;;;;;;4900332;29;20039;-76
2024/01/08 00:20:29;;;;;;;7.00;2.28;;;-2.80;99.90;;;;;;4917141;29;20056;-76
2024/01/08 00:22:55;;;;;;;6.63;3.45;;;-2.90;99.90;;;;;;4917089;29;20043;-76
2024/01/08 00:25:21;;;;;;;4.07;3.13;;;-2.80;99.90;;;;;;4913137;29;20114;-76
2024/01/08 00:27:49;;;;;;;4.82;2.92;;;-2.80;99.90;;;;;;4901493;29;20091;-75
2024/01/08 00:30:15;;;;;;;4.10;2.85;;;-2.90;99.90;;;;;;4901841;29;20060;-76
2024/01/08 00:32:41;;;;;;;3.45;1.92;;;-2.90;99.90;;;;;;4917277;29;20048;-76
2024/01/08 00:35:07;;;;;;;7.07;3.47;;;-2.80;99.90;;;;;;4917044;29;20127;-76
2024/01/08 00:37:35;;;;;;;8.07;3.78;;;-2.90;99.90;;;;;;4916823;29;20119;-76
2024/01/08 00:40:01;;;;;;;5.93;3.13;;;-2.90;99.90;;;;;;4909518;29;20107;-76
2024/01/08 00:42:27;;;;;;;5.47;2.80;;;-3.00;99.90;;;;;;4898017;29;20040;-76
2024/01/08 00:44:52;;;;;;;7.80;2.08;;;-3.00;99.90;;;;;;4897908;29;20084;-76
2024/01/08 00:47:18;;;;;;;6.22;2.45;;;-3.00;99.90;;;;;;4889123;29;20123;-76
2024/01/08 00:49:43;;;;;;;7.30;4.40;;;-3.00;99.90;;;;;;4889807;29;20036;-76
2024/01/08 00:52:09;;;;;;;4.35;2.70;;;-3.00;99.90;;;;;;4897863;29;20039;-76
2024/01/08 00:54:35;;;;;;;6.63;3.88;;;-3.00;99.90;;;;;;4882008;29;20077;-76
2024/01/08 00:57:01;;;;;;;4.97;3.40;;;-3.00;99.90;;;;;;4897883;29;20045;-76
2024/01/08 00:59:26;;;;;;;5.65;3.42;;;-3.10;99.90;;;;;;4906410;29;20043;-76
2024/01/08 01:01:52;;;;;;;4.35;2.88;;;-3.10;99.90;;;;;;4905337;29;20032;-76
2024/01/08 01:04:17;;;;;;;7.30;4.07;;;-3.10;99.90;;;;;;4896957;29;20068;-76
2024/01/08 01:06:44;;;;;;;3.63;2.05;;;-3.10;99.90;;;;;;4899536;29;20559;-76
2024/01/08 01:09:09;;;;;;;5.68;2.90;;;-3.10;99.90;;;;;;4900200;29;20153;-76
2024/01/08 01:11:35;;;;;;;7.80;3.60;;;-3.20;99.90;;;;;;4916477;29;20130;-76
2024/01/08 01:14:01;;;;;;;3.90;2.28;;;-3.20;99.90;;;;;;4916283;29;20048;-76
2024/01/08 01:16:29;;;;;;;2.72;1.83;;;-3.10;99.90;;;;;;4916181;29;20142;-76
2024/01/08 01:18:56;;;;;;;10.70;4.18;;;-3.10;99.90;;;;;;4897762;29;20049;-75
2024/01/08 01:21:22;;;;;;;7.50;4.95;;;-3.10;99.90;;;;;;4882112;29;20048;-76
2024/01/08 01:23:48;;;;;;;3.10;2.17;;;-3.10;99.90;;;;;;4897319;29;20408;-76
2024/01/08 01:26:14;;;;;;;6.15;3.53;;;-3.10;99.90;;;;;;4881800;29;20480;-76
2024/01/08 01:28:41;;;;;;;5.13;3.17;;;-3.10;99.90;;;;;;4901058;29;20618;-76
2024/01/08 01:31:06;;;;;;;3.50;2.17;;;-3.10;99.90;;;;;;4900211;29;20130;-76
2024/01/08 01:33:32;;;;;;;5.43;2.58;;;-3.10;99.90;;;;;;4905888;29;20135;-76
2024/01/08 01:35:57;;;;;;;3.83;2.38;;;-3.10;99.90;;;;;;4897274;29;20198;-76
2024/01/08 01:38:23;;;;;;;2.38;1.73;;;-3.10;99.90;;;;;;4897171;29;20574;-76
2024/01/08 01:40:49;;;;;;;6.57;3.88;;;-3.10;99.90;;;;;;4897338;29;20527;-75
2024/01/08 01:43:21;;;;;;;5.60;3.40;;;-3.10;99.90;;;;;;4896568;29;20041;-76
2024/01/08 01:45:48;;;;;;;3.53;2.05;;;-3.00;99.90;;;;;;4906140;29;20087;-76
2024/01/08 01:48:14;;;;;;;8.90;3.88;;;-3.00;99.90;;;;;;4915495;29;20115;-76
2024/01/08 01:50:40;;;;;;;6.80;3.17;;;-3.00;99.90;;;;;;4915761;29;20099;-76
2024/01/08 01:53:06;;;;;;;7.05;3.88;;;-3.00;99.90;;;;;;4915650;29;20059;-76
2024/01/08 01:55:31;;;;;;;6.32;3.72;;;-2.90;99.90;;;;;;4907410;29;20041;-75
2024/01/08 01:57:58;;;;;;;5.93;2.55;;;-2.80;99.90;;;;;;4897144;29;20052;-75
2024/01/08 02:00:24;;;;;;;5.82;3.28;;;-2.70;99.90;;;;;;4882382;29;20501;-76
2024/01/08 02:02:50;;;;;;;6.65;4.60;;;-2.70;99.90;;;;;;4896632;29;20093;-75
2024/01/08 02:05:16;;;;;;;6.78;3.33;;;-2.60;99.90;;;;;;4896506;29;20518;-76
2024/01/08 02:07:43;;;;;;;6.80;3.25;;;-2.50;99.90;;;;;;4896932;29;20037;-75
2024/01/08 02:10:09;;;;;;;6.00;4.63;;;-2.50;99.90;;;;;;4896456;29;20047;-76
2024/01/08 02:12:36;;;;;;;7.60;4.57;;;-2.50;99.90;;;;;;4898424;29;20383;-76
2024/01/08 02:15:04;;;;;;;8.77;4.40;;;-2.40;99.90;;;;;;4895592;29;20522;-76
2024/01/08 02:17:30;;;;;;;7.57;4.43;;;-2.40;99.90;;;;;;4896330;29;20045;-76
2024/01/08 02:19:56;;;;;;;4.38;2.97;;;-2.40;99.90;;;;;;4896623;29;20503;-76
2024/01/08 02:22:22;;;;;;;6.18;3.20;;;-2.40;99.90;;;;;;4897515;29;20059;-76
2024/01/08 02:24:47;;;;;;;9.57;4.75;;;-2.30;99.90;;;;;;4896433;29;20107;-75
2024/01/08 02:27:14;;;;;;;5.05;3.17;;;-2.30;99.90;;;;;;4909776;29;20068;-76
2024/01/08 02:29:39;;;;;;;5.75;3.30;;;-2.30;99.90;;;;;;4905547;29;20511;-75
2024/01/08 02:32:07;;;;;;;6.47;4.30;;;-2.30;99.90;;;;;;4896036;29;20040;-75
2024/01/08 02:34:32;;;;;;;8.00;5.75;;;-2.20;99.90;;;;;;4895972;29;20096;-75
2024/01/08 02:36:58;;;;;;;6.50;3.33;;;-2.20;99.90;;;;;;4907770;29;20044;-76
2024/01/08 02:39:24;;;;;;;6.80;3.95;;;-2.20;99.90;;;;;;4901634;29;20499;-75
2024/01/08 02:41:49;;;;;;;7.93;4.95;;;-2.10;99.90;;;;;;4914447;29;20040;-76
2024/01/08 02:44:15;;;;;;;7.80;4.18;;;-2.10;99.90;;;;;;4914591;29;20048;-75
2024/01/08 02:46:40;;;;;;;10.15;4.35;;;-2.10;99.90;;;;;;4915112;29;20147;-75
2024/01/08 02:49:06;;;;;;;8.45;5.68;;;-2.10;99.90;;;;;;4910646;29;20032;-76
2024/01/08 02:51:32;;;;;;;4.07;2.35;;;-2.00;99.90;;;;;;4880357;29;20044;-76
2024/01/08 02:53:57;;;;;;;3.38;2.53;;;-2.00;99.90;;;;;;4913112;29;20059;-76
2024/01/08 02:56:24;;;;;;;7.63;4.63;;;-1.90;99.90;;;;;;4912651;29;20040;-76
2024/01/08 02:58:50;;;;;;;6.68;4.40;;;-1.90;99.90;;;;;;4914696;29;20043;-76
2024/01/08 03:01:16;;;;;;;9.15;5.53;;;-1.80;99.90;;;;;;4914566;29;20040;-76
2024/01/08 03:03:41;;;;;;;6.70;4.20;;;-1.80;99.90;;;;;;4914455;29;20032;-76
2024/01/08 03:06:07;;;;;;;8.02;4.90;;;-1.80;99.90;;;;;;4900684;29;20140;-76
2024/01/08 03:08:32;;;;;;;8.07;4.20;;;-1.80;99.90;;;;;;4902063;29;20047;-76
2024/01/08 03:10:58;;;;;;;7.03;3.88;;;-1.70;99.90;;;;;;4898351;29;20072;-76
2024/01/08 03:13:23;;;;;;;7.95;5.15;;;-1.70;99.90;;;;;;4914457;29;20095;-76
2024/01/08 03:15:49;;;;;;;8.00;5.05;;;-1.60;99.90;;;;;;4898768;29;20044;-76
2024/01/08 03:18:14;;;;;;;9.55;6.05;;;-1.70;99.90;;;;;;4914467;29;20063;-76
2024/01/08 03:20:41;;;;;;;8.93;4.97;;;-1.60;99.90;;;;;;4911501;29;20103;-76
2024/01/08 03:23:07;;;;;;;6.90;5.50;;;-1.70;99.90;;;;;;4907886;29;20083;-76
2024/01/08 03:25:32;;;;;;;8.30;5.57;;;-1.70;99.90;;;;;;4897822;29;20067;-76
2024/01/08 03:27:58;;;;;;;13.88;12.48;;;-1.60;99.90;;;;;;4919370;29;20115;-76
2024/01/08 03:30:23;;;;;;;7.53;4.85;;;-1.50;99.90;;;;;;4920360;29;20047;-76
2024/01/08 03:32:49;;;;;;;2.45;1.95;;;-1.50;99.90;;;;;;4905303;29;20044;-76
2024/01/08 03:35:18;;;;;;;5.60;3.63;;;-1.50;99.90;;;;;;4914774;29;20051;-76
2024/01/08 03:37:44;;;;;;;7.13;5.65;;;-1.50;99.90;;;;;;4920609;29;20538;-76
2024/01/08 03:40:10;;;;;;;7.15;4.63;;;-1.50;99.90;;;;;;4919729;29;20079;-76
2024/01/08 03:42:36;;;;;;;4.60;3.03;;;-1.50;99.90;;;;;;4920267;29;20080;-76
2024/01/08 03:45:02;;;;;;;6.57;4.28;;;-1.40;99.90;;;;;;4915959;29;20514;-76
2024/01/08 03:47:27;;;;;;;7.78;4.82;;;-1.50;99.90;;;;;;4920266;29;20459;-76
2024/01/08 03:49:54;;;;;;;10.75;6.32;;;-1.40;99.90;;;;;;4920181;29;20071;-76
2024/01/08 03:52:20;;;;;;;8.57;6.57;;;-1.30;99.90;;;;;;4893242;29;20079;-76
2024/01/08 03:54:45;;;;;;;13.88;12.48;;;-1.40;99.90;;;;;;4901387;29;20072;-76
2024/01/08 03:57:11;;;;;;;5.53;3.78;;;-1.40;99.90;;;;;;4903570;29;20054;-76
2024/01/08 03:59:37;;;;;;;8.18;4.47;;;-1.30;99.90;;;;;;4899435;29;20051;-77
2024/01/08 04:02:02;;;;;;;5.05;3.50;;;-1.40;99.90;;;;;;4911262;29;20040;-77
2024/01/08 04:04:28;;;;;;;7.63;5.15;;;-1.40;99.90;;;;;;4901092;29;20536;-76
2024/01/08 04:06:53;;;;;;;6.72;4.15;;;-1.30;99.90;;;;;;4910774;29;20040;-77
2024/01/08 04:09:19;;;;;;;7.10;4.45;;;-1.30;99.90;;;;;;4920112;29;20036;-76
2024/01/08 04:11:44;;;;;;;6.60;3.80;;;-1.30;99.90;;;;;;4913656;29;20052;-76
2024/01/08 04:14:12;;;;;;;7.35;5.53;;;-1.20;99.90;;;;;;4908275;29;20050;-76
2024/01/08 04:16:38;;;;;;;11.35;5.13;;;-1.30;99.90;;;;;;4920391;29;20488;-76
2024/01/08 04:19:03;;;;;;;3.08;2.13;;;-1.20;99.90;;;;;;4920382;29;20134;-76
2024/01/08 04:21:29;;;;;;;9.07;4.78;;;-1.20;99.90;;;;;;4909738;29;20044;-77
2024/01/08 04:23:54;;;;;;;7.72;4.47;;;-1.20;99.90;;;;;;4919757;29;20091;-77
2024/01/08 04:26:20;;;;;;;5.85;3.45;;;-1.20;99.90;;;;;;4915710;29;20060;-76
2024/01/08 04:28:47;;;;;;;4.60;2.90;;;-1.20;99.90;;;;;;4919866;29;20039;-77
2024/01/08 04:31:22;;;;;;;10.73;4.57;;;-1.20;99.90;;;;;;4917490;29;20071;-76
2024/01/08 04:33:51;;;;;;;5.43;3.05;;;-1.20;99.90;;;;;;4902949;29;20052;-76
2024/01/08 04:36:16;;;;;;;12.95;11.73;;;-1.20;99.90;;;;;;4920113;29;20487;-76
2024/01/08 04:38:44;;;;;;;6.93;4.25;;;-1.20;99.90;;;;;;4917500;29;20052;-76
2024/01/08 04:41:10;;;;;;;3.47;2.70;;;-1.20;99.90;;;;;;4916627;29;20048;-76
2024/01/08 04:43:36;;;;;;;7.80;5.15;;;-1.10;99.90;;;;;;4915194;29;20036;-77
2024/01/08 04:46:01;;;;;;;4.75;3.15;;;-1.20;99.90;;;;;;4917211;29;20052;-76
2024/01/08 04:48:27;;;;;;;4.18;2.95;;;-1.20;99.90;;;;;;4908626;29;20507;-76
2024/01/08 04:50:52;;;;;;;7.97;4.50;;;-1.20;99.90;;;;;;4897844;29;20048;-76
2024/01/08 04:53:18;;;;;;;9.10;5.50;;;-1.20;99.90;;;;;;4897753;29;20381;-76
2024/01/08 04:55:43;;;;;;;4.07;2.88;;;-1.20;99.90;;;;;;4897856;29;20075;-77
2024/01/08 04:58:09;;;;;;;8.68;5.22;;;-1.20;99.90;;;;;;4909712;29;20095;-77
2024/01/08 05:00:34;;;;;;;5.55;2.58;;;-1.20;99.90;;;;;;4916490;29;20044;-77
2024/01/08 05:03:00;;;;;;;7.95;5.13;;;-1.20;99.90;;;;;;4915760;29;20047;-76
2024/01/08 05:05:26;;;;;;;9.95;6.07;;;-1.20;99.90;;;;;;4916753;29;20135;-76
2024/01/08 05:07:52;;;;;;;7.65;4.90;;;-1.20;99.90;;;;;;4916595;29;20044;-77
2024/01/08 05:10:18;;;;;;;4.10;2.33;;;-1.20;99.90;;;;;;4915603;29;20047;-77
2024/01/08 05:12:43;;;;;;;7.15;4.38;;;-1.20;99.90;;;;;;4915029;29;20036;-77
2024/01/08 05:15:09;;;;;;;7.40;4.72;;;-1.20;99.90;;;;;;4901907;29;20495;-77
2024/01/08 05:17:35;;;;;;;7.47;4.72;;;-1.20;99.90;;;;;;4899386;29;20099;-76
2024/01/08 05:20:00;;;;;;;6.15;3.53;;;-1.20;99.90;;;;;;4881810;29;20135;-77
2024/01/08 05:22:26;;;;;;;5.88;3.88;;;-1.20;99.90;;;;;;4881816;29;20128;-77
2024/01/08 05:24:51;;;;;;;5.38;3.63;;;-1.20;99.90;;;;;;4897245;29;20072;-77
2024/01/08 05:27:17;;;;;;;4.85;2.97;;;-1.20;99.90;;;;;;4910454;29;20040;-76
2024/01/08 05:29:44;;;;;;;9.85;4.05;;;-1.20;99.90;;;;;;4908933;29;20044;-77
2024/01/08 05:32:10;;;;;;;6.57;4.68;;;-1.20;99.90;;;;;;4897133;29;20080;-76
2024/01/08 05:34:36;;;;;;;4.63;2.28;;;-1.20;99.90;;;;;;4896907;29;20055;-77
2024/01/08 05:37:01;;;;;;;6.53;4.45;;;-1.20;99.90;;;;;;4897169;29;20037;-77
2024/01/08 05:39:27;;;;;;;5.65;4.13;;;-1.30;99.90;;;;;;4896770;29;20044;-76
2024/01/08 05:41:53;;;;;;;6.68;4.13;;;-1.30;99.90;;;;;;4914094;29;20039;-76
2024/01/08 05:44:18;;;;;;;5.93;3.70;;;-1.30;99.90;;;;;;4907583;29;20032;-76
2024/01/08 05:46:44;;;;;;;6.45;3.53;;;-1.40;99.90;;;;;;4900423;29;20040;-76
2024/01/08 05:49:10;;;;;;;3.45;2.40;;;-1.40;99.90;;;;;;4881229;29;20040;-77
2024/01/08 05:51:36;;;;;;;4.80;3.45;;;-1.40;99.90;;;;;;4904979;29;20051;-77
2024/01/08 05:54:02;;;;;;;5.30;4.00;;;-1.40;99.90;;;;;;4915448;29;20040;-76
2024/01/08 05:56:28;;;;;;;2.47;1.35;;;-1.40;99.90;;;;;;4915949;29;20381;-76
2024/01/08 05:58:54;;;;;;;6.07;2.97;;;-1.40;99.90;;;;;;4914639;29;20051;-76
2024/01/08 06:01:20;;;;;;;5.35;3.42;;;-1.40;99.90;;;;;;4914695;29;20046;-77
2024/01/08 06:03:45;;;;;;;9.43;4.30;;;-1.40;99.90;;;;;;4896047;29;20047;-76
2024/01/08 06:06:12;;;;;;;5.95;3.35;;;-1.40;99.90;;;;;;4915602;29;20036;-77
2024/01/08 06:08:40;;;;;;;6.63;3.95;;;-1.40;99.90;;;;;;4909596;29;20340;-76
2024/01/08 06:11:06;;;;;;;9.60;4.13;;;-1.50;99.90;;;;;;4910716;29;20051;-77
2024/01/08 06:13:32;;;;;;;6.63;4.40;;;-1.40;99.90;;;;;;4904183;29;20202;-76
2024/01/08 06:15:57;;;;;;;3.83;2.67;;;-1.40;99.90;;;;;;4905918;29;20134;-76
2024/01/08 06:18:24;;;;;;;7.20;3.70;;;-1.50;99.90;;;;;;4908137;29;20055;-76
2024/01/08 06:20:49;;;;;;;11.35;9.73;;;-1.50;99.90;;;;;;4913534;29;20048;-76
2024/01/08 06:23:15;;;;;;;5.10;2.85;;;-1.40;99.90;;;;;;4898044;29;20047;-76
2024/01/08 06:25:41;;;;;;;5.15;3.30;;;-1.40;99.90;;;;;;4897390;29;20047;-78
2024/01/08 06:28:06;;;;;;;6.25;4.18;;;-1.50;99.90;;;;;;4896407;29;20095;-75
2024/01/08 06:30:32;;;;;;;6.70;4.13;;;-1.50;99.90;;;;;;4896381;29;20037;-78
2024/01/08 06:32:57;;;;;;;7.70;4.53;;;-1.50;99.90;;;;;;4912352;29;20047;-78
2024/01/08 06:35:23;;;;;;;10.30;5.20;;;-1.40;99.90;;;;;;4913111;29;20044;-78
2024/01/08 06:37:49;;;;;;;6.45;4.07;;;-1.40;99.90;;;;;;4905958;29;20048;-78
2024/01/08 06:40:15;;;;;;;6.32;3.58;;;-1.50;99.90;;;;;;4914781;29;20407;-79
2024/01/08 06:42:40;;;;;;;7.00;3.75;;;-1.50;99.90;;;;;;4911785;29;20126;-75
2024/01/08 06:45:06;;;;;;;3.85;3.13;;;-1.50;99.90;;;;;;4903161;29;20037;-80
2024/01/08 06:47:32;;;;;;;5.50;3.65;;;-1.40;99.90;;;;;;4893234;29;20119;-76
2024/01/08 06:49:57;;;;;;;6.60;3.88;;;-1.50;99.90;;;;;;4909924;29;20035;-76
2024/01/08 06:52:24;;;;;;;7.45;4.35;;;-1.50;99.90;;;;;;4911153;29;20119;-76
2024/01/08 06:54:49;;;;;;;5.30;3.58;;;-1.50;99.90;;;;;;4886346;29;20051;-77
2024/01/08 06:57:15;;;;;;;8.00;4.88;;;-1.50;99.90;;;;;;4898336;29;20045;-76
2024/01/08 06:59:40;;;;;;;6.55;4.00;;;-1.50;99.90;;;;;;4906877;29;20075;-76
2024/01/08 07:02:06;;;;;;;6.82;4.60;;;-1.50;99.90;;;;;;4908404;29;20063;-76
2024/01/08 07:04:32;;;;;;;8.90;5.03;;;-1.50;99.90;;;;;;4914195;29;20036;-75
2024/01/08 07:06:57;;;;;;;11.00;4.88;;;-1.50;99.90;;;;;;4914590;29;20044;-76
2024/01/08 07:09:23;;;;;;;7.82;4.20;;;-1.50;99.90;;;;;;4907517;29;20099;-76
2024/01/08 07:11:49;;;;;;;12.55;11.25;;;-1.50;99.90;;;;;;4895428;29;20033;-76
2024/01/08 07:14:14;;;;;;;10.25;6.65;;;-1.50;99.90;;;;;;4907835;29;20039;-79
2024/01/08 07:16:40;;;;;;;5.03;3.03;;;-1.50;99.90;;;;;;4913844;29;20051;-77
2024/01/08 07:19:05;;;;;;;6.85;3.97;;;-1.50;99.90;;;;;;4911857;29;20480;-77
2024/01/08 07:21:31;;;;;;;8.20;5.03;;;-1.50;99.90;;;;;;4910062;29;20404;-77
2024/01/08 07:23:57;;;;;;;8.00;4.70;;;-1.50;99.90;;;;;;4895099;29;20100;-76
2024/01/08 07:26:23;;;;;;;7.45;4.10;;;-1.50;99.90;;;;;;4904881;29;20055;-76
2024/01/08 07:28:49;;;;;;;7.93;5.30;;;-1.50;99.90;;;;;;4903681;29;20033;-75
2024/01/08 07:31:17;;;;;;;3.83;2.63;;;-1.50;99.90;;;;;;4912204;29;20044;-76
2024/01/08 07:33:43;;;;;;;2.67;2.05;;;-1.50;99.90;;;;;;4901193;29;20118;-76
2024/01/08 07:36:09;;;;;;;6.88;4.15;;;-1.50;99.90;;;;;;4895174;29;20506;-76
2024/01/08 07:38:34;;;;;;;8.10;5.38;;;-1.40;99.90;;;;;;4895397;29;20044;-77
2024/01/08 07:41:00;;;;;;;6.72;4.45;;;-1.40;99.90;;;;;;4893715;29;20087;-77
2024/01/08 07:43:27;;;;;;;10.63;6.03;;;-1.50;99.90;;;;;;4894582;29;20043;-77
2024/01/08 07:45:52;;;;;;;8.15;4.22;;;-1.50;99.90;;;;;;4895228;29;20045;-76
2024/01/08 07:48:18;;;;;;;7.60;3.78;;;-1.40;99.90;;;;;;4879792;29;20446;-77
2024/01/08 07:50:45;;;;;;;7.95;4.57;;;-1.40;99.90;;;;;;4895225;29;20036;-77
2024/01/08 07:53:11;;;;;;;11.25;5.78;;;-1.40;99.90;;;;;;4895016;29;20045;-76
2024/01/08 07:55:37;;;;;;;8.27;4.10;;;-1.40;99.90;;;;;;4895492;29;20432;-76
2024/01/08 07:58:02;;;;;;;10.60;5.47;;;-1.40;99.90;;;;;;4895522;29;20550;-77
2024/01/08 08:00:28;;;;;;;5.15;4.03;;;-1.40;99.90;;;;;;4895145;29;20514;-77
2024/01/08 08:02:54;;;;;;;5.43;3.63;;;-1.30;99.90;;;;;;4894984;29;20456;-77
2024/01/08 08:05:20;;;;;;;5.07;3.35;;;-1.30;99.90;;;;;;4879519;29;20040;-77
2024/01/08 08:07:45;;;;;;;22.60;5.70;;;-1.30;99.90;;;;;;4895115;29;20559;-77
2024/01/08 08:10:11;;;;;;;8.27;3.90;;;-1.30;99.90;;;;;;4895340;29;20483;-77
2024/01/08 08:12:37;;;;;;;6.53;4.18;;;-1.30;99.90;;;;;;4895309;29;20037;-77
2024/01/08 08:15:02;;;;;;;7.90;3.08;;;-1.30;99.90;;;;;;4882164;29;20118;-77
2024/01/08 08:17:29;;;;;;;5.47;2.90;;;-1.20;99.90;;;;;;4898845;29;20047;-77
2024/01/08 08:19:55;;;;;;;4.55;3.15;;;-1.20;99.90;;;;;;4898610;29;20051;-77
2024/01/08 08:22:21;;;;;;;4.38;2.45;;;-1.20;99.90;;;;;;4882862;29;20036;-77
2024/01/08 08:24:47;;;;;;;6.03;3.70;;;-1.10;99.90;;;;;;4898341;29;20041;-77
2024/01/08 08:27:13;;;;;;;4.65;3.00;;;-1.10;99.90;;;;;;4898516;29;20044;-77
2024/01/08 08:29:44;;;;;;;6.22;3.33;;;-1.10;99.90;;;;;;4882672;29;20036;-77
2024/01/08 08:32:10;;;;;;;2.95;2.00;;;-1.10;99.90;;;;;;4898328;29;20037;-77
2024/01/08 08:34:36;;;;;;;6.07;2.78;;;-1.10;99.90;;;;;;4882768;29;20460;-77
2024/01/08 08:37:02;;;;;;;8.63;4.82;;;-1.00;99.90;;;;;;4882932;29;20070;-76
2024/01/08 08:39:27;;;;;;;6.80;2.35;;;-1.00;99.90;;;;;;4898284;29;20041;-77
2024/01/08 08:41:55;;;;;;;6.15;3.60;;;-1.00;99.90;;;;;;4899394;29;20044;-77
2024/01/08 08:44:20;;;;;;;5.50;3.15;;;-0.90;99.90;;;;;;4899096;29;20119;-77
2024/01/08 08:46:46;;;;;;;4.18;3.05;;;-0.90;99.90;;;;;;4898206;29;20168;-77
2024/01/08 08:49:13;;;;;;;4.65;2.90;;;-0.90;99.90;;;;;;4898336;29;20048;-77
2024/01/08 08:51:45;;;;;;;7.68;2.75;;;-0.90;99.90;;;;;;4897920;29;20045;-77
2024/01/08 08:54:10;;;;;;;7.70;6.78;;;-0.90;99.90;;;;;;4897940;29;20052;-77
2024/01/08 08:56:36;;;;;;;4.68;2.60;;;-0.80;99.90;;;;;;4897956;29;20415;-77
2024/01/08 08:59:02;;;;;;;6.15;2.92;;;-0.80;99.90;;;;;;4899076;29;20044;-77
2024/01/08 09:01:28;;;;;;;6.22;3.05;;;-0.80;99.90;;;;;;4897861;29;20100;-77
2024/01/08 09:03:54;;;;;;;7.55;3.60;;;-0.80;99.90;;;;;;4881981;29;20032;-78
2024/01/08 09:06:20;;;;;;;3.90;2.53;;;-0.70;99.90;;;;;;4898046;29;20076;-77
2024/01/08 09:08:50;;;;;;;7.70;6.57;;;-0.70;99.90;;;;;;4882123;29;20040;-77
2024/01/08 09:11:16;;;;;;;2.58;1.85;;;-0.70;99.90;;;;;;4897858;29;20196;-77
2024/01/08 09:13:42;;;;;;;3.85;2.83;;;-0.70;99.90;;;;;;4897598;29;20131;-78
2024/01/08 09:16:10;;;;;;;5.35;3.75;;;-0.60;99.90;;;;;;4897649;29;20640;-77
2024/01/08 09:18:35;;;;;;;5.50;3.00;;;-0.60;99.90;;;;;;4897602;29;20048;-78
2024/01/08 09:21:01;;;;;;;2.17;1.33;;;-0.60;99.90;;;;;;4881954;29;20074;-77
2024/01/08 09:23:27;;;;;;;2.05;1.65;;;-0.60;99.90;;;;;;4898556;29;20040;-77
2024/01/08 09:25:52;;;;;;;4.05;2.55;;;-0.60;99.90;;;;;;4897133;29;20131;-77
2024/01/08 09:28:18;;;;;;;5.78;2.78;;;-0.60;99.90;;;;;;4897540;29;20032;-77
2024/01/08 09:30:44;;;;;;;4.95;2.97;;;-0.50;99.90;;;;;;4881653;29;20040;-77
2024/01/08 10:07:04;;;;;;;;;;;;;;;;;;;;;
2024/01/08 11:02:38;;;;;;;;;;;;;;;;;;;;;
2024/01/08 11:46:38;;;;;;;6.50;5.80;;;0.40;99.90;;;;;;6176578;23;20017;-81
2024/01/08 14:14:58;;;;;;;4.20;2.65;;;0.20;99.90;;;;;;6195874;23;20678;-81
2024/01/08 14:17:23;;;;;;;3.05;2.40;;;0.10;99.90;;;;;;6187361;23;20009;-81
2024/01/08 14:19:49;;;;;;;6.10;3.42;;;0.10;99.90;;;;;;6212434;23;20019;-81
2024/01/08 14:22:14;;;;;;;5.68;2.58;;;0.10;99.90;;;;;;6212451;23;20023;-80
2024/01/08 14:24:40;;;;;;;6.32;3.17;;;0.00;99.90;;;;;;6169678;23;20016;-81
2024/01/08 14:45:13;;;;;;;3.42;2.63;;;-0.10;99.90;;;;;;6189276;23;20051;-81
2024/01/08 14:47:42;;;;;;;6.72;5.80;;;-0.10;99.90;;;;;;6187320;23;20456;-81
2024/01/08 14:50:08;;;;;;;5.25;2.83;;;-0.10;99.90;;;;;;6187396;23;20020;-81
2024/01/08 14:52:34;;;;;;;2.28;1.70;;;-0.10;99.90;;;;;;6162465;23;20009;-81
2024/01/08 14:54:59;;;;;;;4.65;2.97;;;-0.20;99.90;;;;;;6186663;23;20013;-81
2024/01/08 14:57:26;;;;;;;5.35;2.90;;;-0.20;99.90;;;;;;6157348;23;20044;-81
2024/01/08 16:22:43;;;;;;;5.15;2.80;;;-1.20;99.90;;;;;;6189971;23;20612;-79
2024/01/08 16:25:09;;;;;;;2.17;1.40;;;-1.20;99.90;;;;;;6163541;23;20013;-80
2024/01/08 16:27:35;;;;;;;2.13;1.52;;;-1.20;99.90;;;;;;6189029;23;20008;-80
2024/01/08 16:30:00;;;;;;;3.72;2.13;;;-1.30;99.90;;;;;;6188286;23;20013;-80
2024/01/08 16:32:26;;;;;;;2.95;2.08;;;-1.30;99.90;;;;;;6188249;23;20452;-80
2024/01/08 16:34:51;;;;;;;2.65;1.83;;;-1.30;99.90;;;;;;6135740;23;20449;-81
2024/01/08 16:57:13;;;;;;;4.07;3.10;;;-1.40;99.90;;;;;;6098427;23;20077;-80
2024/01/08 17:00:51;;;;;;;;;;;;;;;;;;;;;
2024/01/08 17:11:25;;;;;;;4.57;3.28;;;-1.40;99.90;;;;;;6002812;23;20458;-81
2024/01/08 17:13:51;;;;;;;7.30;4.15;;;-1.40;99.90;;;;;;6190117;23;20024;-76
2024/01/08 17:16:18;;;;;;;4.72;2.28;;;-1.40;99.90;;;;;;6191845;23;20016;-78
2024/01/08 17:18:47;;;;;;;5.22;2.55;;;-1.40;99.90;;;;;;6216003;23;20012;-79
2024/01/08 17:21:35;;;;;;;5.50;3.30;;;-1.40;99.90;;;;;;6218503;23;20019;-79
2024/01/08 17:24:10;;;;;;;4.28;2.63;;;-1.30;99.90;;;;;;6194760;23;20040;-79
2024/01/08 17:26:59;;;;;;;4.30;2.65;;;-1.40;99.90;;;;;;6192678;23;20023;-79
2024/01/08 17:29:52;;;;;;;4.15;2.17;;;-1.40;99.90;;;;;;6219879;23;20016;-79
2024/01/08 17:32:35;;;;;;;6.00;2.88;;;-1.50;99.90;;;;;;6220005;23;20075;-79
2024/01/08 17:35:07;;;;;;;5.45;3.25;;;-1.50;99.90;;;;;;6220730;23;20019;-79
2024/01/08 17:37:41;;;;;;;2.85;2.05;;;-1.50;99.90;;;;;;6192472;23;20340;-79
2024/01/08 17:40:46;;;;;;;5.38;3.63;;;-1.50;99.90;;;;;;6219066;23;20013;-80
2024/01/08 17:43:47;;;;;;;4.80;3.20;;;-1.50;99.90;;;;;;6193823;23;20464;-79
2024/01/08 17:46:24;;;;;;;3.00;1.90;;;-1.50;99.90;;;;;;6191866;23;20372;-77
2024/01/08 17:48:55;;;;;;;4.25;2.83;;;-1.40;99.90;;;;;;6190899;23;20040;-78
2024/01/08 17:51:47;;;;;;;6.10;2.60;;;-1.50;99.90;;;;;;6193745;23;20429;-79
2024/01/08 17:54:32;;;;;;;3.35;2.50;;;-1.50;99.90;;;;;;6194575;23;20012;-79
2024/01/08 17:57:09;;;;;;;3.78;3.20;;;-1.60;99.90;;;;;;6194370;23;20016;-79
2024/01/08 18:00:08;;;;;;;2.95;2.38;;;-1.60;99.90;;;;;;6200396;23;20044;-81
2024/01/08 18:02:37;;;;;;;4.05;2.78;;;-1.60;99.90;;;;;;6200274;23;20066;-81
2024/01/08 18:05:20;;;;;;;5.78;2.47;;;-1.60;99.90;;;;;;6226875;23;20016;-81
2024/01/08 18:07:49;;;;;;;;;;;-1.60;99.90;;;;;;6202314;23;20012;-81
2024/01/08 18:10:31;;;;;;;2.50;1.88;;;-1.60;99.90;;;;;;6199262;23;20392;-80
2024/01/08 18:13:27;;;;;;;3.08;1.95;;;-1.60;99.90;;;;;;6200952;23;20095;-80
2024/01/08 18:15:53;;;;;;;3.53;1.98;;;-1.70;99.90;;;;;;6218822;23;20020;-78
2024/01/08 18:18:19;;;;;;;6.65;3.33;;;-1.70;99.90;;;;;;6211441;23;20483;-78
2024/01/08 18:20:44;;;;;;;3.35;2.10;;;-1.70;99.90;;;;;;6186067;23;20112;-78
2024/01/08 18:23:10;;;;;;;5.00;3.03;;;-1.70;99.90;;;;;;6185628;23;20445;-78
2024/01/08 18:25:38;;;;;;;3.35;2.45;;;-1.80;99.90;;;;;;6186286;23;20016;-78
2024/01/08 18:28:04;;;;;;;5.22;2.97;;;-1.80;99.90;;;;;;6185246;23;20059;-78
2024/01/08 18:30:30;;;;;;;5.32;3.42;;;-1.80;99.90;;;;;;6187398;23;20020;-78
2024/01/08 18:32:55;;;;;;;8.60;4.43;;;-1.80;99.90;;;;;;6186004;23;20063;-79
2024/01/08 18:35:21;;;;;;;4.50;2.67;;;-1.90;99.90;;;;;;6185900;23;20008;-78
2024/01/08 18:37:47;;;;;;;6.50;3.78;;;-1.80;99.90;;;;;;6184682;23;20021;-78
2024/01/08 18:40:15;;;;;;;10.60;5.25;;;-1.90;99.90;;;;;;6211192;23;20391;-78
2024/01/08 18:42:40;;;;;;;4.25;2.80;;;-1.90;99.90;;;;;;6186014;23;20423;-78
2024/01/08 18:45:08;;;;;;;2.85;1.77;;;-1.90;99.90;;;;;;6185922;23;20016;-79
2024/01/08 18:47:34;;;;;;;4.35;2.70;;;-1.90;99.90;;;;;;6185559;23;20020;-78
2024/01/08 18:49:59;;;;;;;5.30;3.55;;;-1.90;99.90;;;;;;6187638;23;20066;-78
2024/01/08 18:52:25;;;;;;;6.53;3.40;;;-2.00;99.90;;;;;;6187837;23;20008;-78
2024/01/08 18:54:52;;;;;;;1.95;1.65;;;-2.00;99.90;;;;;;6187671;23;20012;-78
2024/01/08 18:57:17;;;;;;;10.40;5.50;;;-1.90;99.90;;;;;;6187584;23;20116;-78
2024/01/08 18:59:43;;;;;;;6.03;3.72;;;-2.00;99.90;;;;;;6187672;23;20110;-78
2024/01/08 19:02:09;;;;;;;5.90;2.85;;;-1.90;99.90;;;;;;6212592;23;20047;-78
2024/01/08 19:04:34;;;;;;;3.38;2.25;;;-2.00;99.90;;;;;;6187254;23;20024;-78
2024/01/08 19:07:00;;;;;;;4.63;3.47;;;-2.00;99.90;;;;;;6212505;23;20511;-78
2024/01/08 19:09:26;;;;;;;6.82;4.15;;;-2.00;99.90;;;;;;6186944;23;20078;-78
2024/01/08 19:11:55;;;;;;;3.15;2.53;;;-2.00;99.90;;;;;;6186021;23;20429;-78
2024/01/08 19:14:21;;;;;;;5.88;3.40;;;-2.00;99.90;;;;;;6212800;23;20009;-78
2024/01/08 19:16:58;;;;;;;8.60;7.68;;;-2.00;99.90;;;;;;6214736;23;20071;-81
2024/01/08 19:19:45;;;;;;;6.28;3.28;;;-2.00;99.90;;;;;;6224704;23;20346;-83
2024/01/08 19:22:11;;;;;;;4.40;3.13;;;-2.00;99.90;;;;;;6219370;23;20096;-78
2024/01/08 19:24:37;;;;;;;5.57;2.97;;;-2.00;99.90;;;;;;6188241;23;20441;-78
2024/01/08 19:27:02;;;;;;;8.52;2.17;;;-2.00;99.90;;;;;;6188127;23;20495;-78
2024/01/08 19:29:29;;;;;;;4.53;2.97;;;-2.00;99.90;;;;;;6186668;23;20017;-79
2024/01/08 19:31:55;;;;;;;6.10;4.07;;;-1.90;99.90;;;;;;6187339;23;20019;-78
2024/01/08 19:34:20;;;;;;;2.10;1.90;;;-2.10;99.90;;;;;;6186530;23;20088;-78